Time;durP1;ratioP1;P1;durP2;ratioP2;P2;SDS_P1;SDS_P2;PMS_P1;PMS_P2;Temp;Humidity;BMP_temperature;BMP_pressure;BME280_temperature;BME280_humidity;BME280_pressure;Samples;Min_cycle;Max_cycle;Signal;HPM_P1;HPM_P2
2021/11/03 00:02:19;;;;;;;25.95;12.55;;;;;;;;;;5014511;28;20129;-88
2021/11/03 00:04:46;;;;;;;25.70;12.10;;;;;;;;;;5030529;28;20461;-87
2021/11/03 00:07:14;;;;;;;31.33;13.43;;;;;;;;;;5012910;28;20092;-87
2021/11/03 00:09:41;;;;;;;36.22;12.55;;;;;;;;;;5013793;28;20133;-88
2021/11/03 00:12:11;;;;;;;23.35;12.68;;;;;;;;;;5013445;28;20609;-87
2021/11/03 00:14:39;;;;;;;33.58;13.52;;;;;;;;;;5012538;28;20132;-88
2021/11/03 00:17:06;;;;;;;27.23;12.43;;;;;;;;;;5013336;28;20813;-87
2021/11/03 00:19:33;;;;;;;28.52;12.82;;;;;;;;;;5013532;28;20073;-87
2021/11/03 00:22:09;;;;;;;31.55;12.80;;;;;;;;;;5015993;28;20136;-88
2021/11/03 00:24:37;;;;;;;26.30;12.70;;;;;;;;;;5023774;28;20041;-88
2021/11/03 00:27:04;;;;;;;31.75;13.57;;;;;;;;;;5031911;28;20057;-87
2021/11/03 00:29:31;;;;;;;27.00;13.50;;;;;;;;;;5015232;28;20081;-88
2021/11/03 00:31:59;;;;;;;29.15;12.90;;;;;;;;;;5021715;28;20091;-87
2021/11/03 00:34:26;;;;;;;30.77;13.07;;;;;;;;;;5026813;28;20080;-88
2021/11/03 00:36:53;;;;;;;27.50;13.35;;;;;;;;;;5016152;28;20137;-88
2021/11/03 00:39:22;;;;;;;29.20;13.68;;;;;;;;;;5032882;28;20087;-87
2021/11/03 00:41:50;;;;;;;34.88;14.68;;;;;;;;;;5030491;28;20069;-88
2021/11/03 00:44:18;;;;;;;28.67;13.30;;;;;;;;;;4996439;28;20141;-87
2021/11/03 00:46:45;;;;;;;31.35;13.77;;;;;;;;;;5001451;28;20094;-87
2021/11/03 00:49:12;;;;;;;32.60;13.52;;;;;;;;;;5016842;28;20176;-88
2021/11/03 00:51:39;;;;;;;27.25;13.45;;;;;;;;;;5017955;28;20137;-87
2021/11/03 00:54:09;;;;;;;32.55;13.90;;;;;;;;;;5008935;28;20137;-87
2021/11/03 00:56:36;;;;;;;35.83;13.57;;;;;;;;;;5008781;28;20077;-86
2021/11/03 00:59:04;;;;;;;28.50;13.80;;;;;;;;;;5011836;28;20080;-88
2021/11/03 01:01:32;;;;;;;34.03;13.52;;;;;;;;;;5016768;28;20053;-88
2021/11/03 01:04:00;;;;;;;26.90;13.02;;;;;;;;;;5013727;28;20046;-87
2021/11/03 01:06:27;;;;;;;28.25;13.10;;;;;;;;;;5013934;28;20134;-87
2021/11/03 01:08:54;;;;;;;36.53;12.95;;;;;;;;;;4998795;28;20089;-87
2021/11/03 01:11:21;;;;;;;29.48;14.48;;;;;;;;;;4989406;28;20647;-79
2021/11/03 01:14:00;;;;;;;30.83;13.23;;;;;;;;;;4988463;28;20160;-79
2021/11/03 01:16:27;;;;;;;28.77;13.10;;;;;;;;;;5004903;28;20541;-78
2021/11/03 01:18:55;;;;;;;29.92;12.43;;;;;;;;;;5007661;28;20379;-78
2021/11/03 01:21:22;;;;;;;29.48;12.57;;;;;;;;;;5005857;28;20078;-78
2021/11/03 01:23:50;;;;;;;32.97;11.40;;;;;;;;;;5007455;28;20065;-78
2021/11/03 01:26:18;;;;;;;28.88;12.75;;;;;;;;;;4993499;28;20815;-78
2021/11/03 01:28:45;;;;;;;26.38;13.32;;;;;;;;;;5005132;28;20081;-79
2021/11/03 01:31:13;;;;;;;29.45;12.90;;;;;;;;;;5011368;28;20079;-79
2021/11/03 01:33:42;;;;;;;28.60;13.10;;;;;;;;;;5019845;28;20057;-79
2021/11/03 01:36:09;;;;;;;26.25;12.98;;;;;;;;;;5015806;28;20157;-79
2021/11/03 01:38:36;;;;;;;28.85;12.98;;;;;;;;;;5007733;28;20461;-79
2021/11/03 01:41:04;;;;;;;25.35;12.00;;;;;;;;;;5007420;28;20053;-79
2021/11/03 01:43:42;;;;;;;28.50;12.57;;;;;;;;;;5007644;28;20135;-79
2021/11/03 01:46:21;;;;;;;26.90;12.05;;;;;;;;;;4995769;28;20133;-79
2021/11/03 01:48:49;;;;;;;26.98;12.38;;;;;;;;;;4996950;28;20494;-78
2021/11/03 01:51:22;;;;;;;31.23;13.05;;;;;;;;;;5005952;28;20251;-79
2021/11/03 01:53:50;;;;;;;30.33;13.60;;;;;;;;;;5006213;28;20133;-79
2021/11/03 01:56:18;;;;;;;21.73;11.75;;;;;;;;;;4999191;28;20133;-78
2021/11/03 01:58:48;;;;;;;26.45;12.38;;;;;;;;;;5015377;28;20122;-79
2021/11/03 02:01:16;;;;;;;25.35;13.00;;;;;;;;;;4999143;28;20077;-79
2021/11/03 02:03:43;;;;;;;22.33;12.88;;;;;;;;;;5005821;28;20568;-78
2021/11/03 02:06:13;;;;;;;30.95;13.15;;;;;;;;;;5003436;28;20101;-79
2021/11/03 02:08:42;;;;;;;33.95;14.05;;;;;;;;;;5005863;28;20089;-79
2021/11/03 02:11:10;;;;;;;32.13;13.45;;;;;;;;;;4985993;28;20141;-78
2021/11/03 02:13:38;;;;;;;30.10;13.70;;;;;;;;;;4994313;28;20147;-79
2021/11/03 02:16:07;;;;;;;30.80;13.73;;;;;;;;;;5005492;28;20053;-78
2021/11/03 02:18:36;;;;;;;26.90;13.20;;;;;;;;;;5006082;28;20084;-79
2021/11/03 02:21:04;;;;;;;31.10;13.60;;;;;;;;;;5005490;28;20132;-79
2021/11/03 02:23:31;;;;;;;29.73;13.88;;;;;;;;;;5004873;28;20145;-78
2021/11/03 02:26:05;;;;;;;29.30;14.27;;;;;;;;;;5007388;28;20052;-79
2021/11/03 02:28:34;;;;;;;29.95;12.93;;;;;;;;;;5004785;28;20058;-78
2021/11/03 02:31:01;;;;;;;34.45;14.68;;;;;;;;;;5005246;28;20153;-80
2021/11/03 02:33:29;;;;;;;37.70;13.82;;;;;;;;;;5011598;28;20092;-79
2021/11/03 02:36:01;;;;;;;27.85;12.50;;;;;;;;;;5014498;28;20073;-78
2021/11/03 02:38:36;;;;;;;33.38;13.38;;;;;;;;;;4999266;28;20458;-78
2021/11/03 02:41:03;;;;;;;;;;;;;;;;;;5005885;28;20050;-79
2021/11/03 02:43:40;;;;;;;29.60;13.80;;;;;;;;;;5006478;28;19968;-78
2021/11/03 02:46:07;;;;;;;33.33;13.30;;;;;;;;;;5005263;28;20462;-78
2021/11/03 02:48:37;;;;;;;29.50;13.13;;;;;;;;;;5006560;28;20758;-78
2021/11/03 02:51:10;;;;;;;32.05;14.35;;;;;;;;;;5013777;28;20132;-78
2021/11/03 02:53:41;;;;;;;30.25;14.65;;;;;;;;;;5014817;28;20069;-78
2021/11/03 02:56:08;;;;;;;36.17;14.65;;;;;;;;;;5005687;28;20152;-78
2021/11/03 02:58:37;;;;;;;32.58;15.38;;;;;;;;;;5001815;28;20141;-78
2021/11/03 03:01:15;;;;;;;42.13;14.45;;;;;;;;;;5000892;28;20054;-78
2021/11/03 03:03:46;;;;;;;29.20;13.85;;;;;;;;;;5005275;28;20096;-78
2021/11/03 03:06:16;;;;;;;29.15;14.15;;;;;;;;;;4998543;28;20144;-78
2021/11/03 03:08:43;;;;;;;30.00;13.45;;;;;;;;;;5003457;28;20054;-79
2021/11/03 03:11:10;;;;;;;34.05;14.60;;;;;;;;;;5003401;28;20498;-78
2021/11/03 03:13:38;;;;;;;35.70;14.60;;;;;;;;;;5003813;28;20041;-78
2021/11/03 03:16:05;;;;;;;30.85;13.75;;;;;;;;;;5003579;28;20049;-79
2021/11/03 03:18:33;;;;;;;30.13;13.98;;;;;;;;;;4999756;28;20046;-79
2021/11/03 03:21:00;;;;;;;31.95;14.55;;;;;;;;;;5005446;28;20086;-79
2021/11/03 03:23:39;;;;;;;28.17;14.60;;;;;;;;;;4999479;28;20046;-79
2021/11/03 03:26:07;;;;;;;29.88;14.98;;;;;;;;;;5021038;28;20927;-78
2021/11/03 03:28:34;;;;;;;32.35;14.95;;;;;;;;;;4999820;28;20129;-78
2021/11/03 03:31:02;;;;;;;33.22;14.10;;;;;;;;;;5005474;28;20069;-79
2021/11/03 03:33:29;;;;;;;37.05;15.07;;;;;;;;;;5015517;28;20050;-78
2021/11/03 03:35:57;;;;;;;32.00;14.93;;;;;;;;;;4999314;28;20138;-79
2021/11/03 03:38:24;;;;;;;28.70;13.48;;;;;;;;;;5009217;28;20138;-79
2021/11/03 03:40:51;;;;;;;32.05;13.40;;;;;;;;;;5000398;28;20130;-79
2021/11/03 03:43:18;;;;;;;34.97;14.50;;;;;;;;;;5012374;28;20080;-79
2021/11/03 03:45:50;;;;;;;33.72;15.10;;;;;;;;;;5010086;28;20050;-79
2021/11/03 03:48:17;;;;;;;34.85;14.35;;;;;;;;;;4993860;28;20515;-80
2021/11/03 03:50:44;;;;;;;31.15;14.68;;;;;;;;;;5008361;28;20136;-79
2021/11/03 03:53:11;;;;;;;36.03;14.82;;;;;;;;;;5009770;28;20100;-78
2021/11/03 03:55:39;;;;;;;28.85;14.25;;;;;;;;;;5008440;28;20746;-78
2021/11/03 03:58:07;;;;;;;29.98;13.82;;;;;;;;;;5006806;28;20126;-78
2021/11/03 04:00:36;;;;;;;33.80;14.60;;;;;;;;;;5001117;28;20137;-79
2021/11/03 04:03:06;;;;;;;31.27;14.82;;;;;;;;;;5015413;28;20062;-78
2021/11/03 04:05:33;;;;;;;30.73;14.80;;;;;;;;;;5007402;28;20077;-78
2021/11/03 04:08:00;;;;;;;31.77;14.00;;;;;;;;;;5007520;28;20133;-78
2021/11/03 04:10:27;;;;;;;32.00;14.63;;;;;;;;;;4991482;28;20077;-78
2021/11/03 04:12:55;;;;;;;32.72;13.90;;;;;;;;;;5008497;28;20132;-79
2021/11/03 04:15:22;;;;;;;31.83;14.23;;;;;;;;;;5003616;28;20125;-79
2021/11/03 04:17:49;;;;;;;31.40;13.98;;;;;;;;;;4993790;28;20092;-79
2021/11/03 04:20:17;;;;;;;32.33;14.55;;;;;;;;;;5005463;28;20088;-79
2021/11/03 04:22:44;;;;;;;33.40;16.45;;;;;;;;;;5007057;28;20136;-78
2021/11/03 04:25:12;;;;;;;33.85;15.45;;;;;;;;;;5004531;28;20056;-80
2021/11/03 04:27:40;;;;;;;29.27;15.05;;;;;;;;;;4988757;28;20141;-78
2021/11/03 04:30:08;;;;;;;33.50;14.88;;;;;;;;;;4989932;28;20506;-80
2021/11/03 04:32:36;;;;;;;32.42;15.75;;;;;;;;;;5016230;28;20649;-78
2021/11/03 04:35:04;;;;;;;31.30;14.20;;;;;;;;;;5006565;28;20153;-79
2021/11/03 04:37:32;;;;;;;32.58;15.10;;;;;;;;;;5006612;28;20077;-78
2021/11/03 04:39:59;;;;;;;32.42;14.55;;;;;;;;;;5010146;28;20121;-79
2021/11/03 04:42:26;;;;;;;32.70;14.27;;;;;;;;;;4989372;28;20126;-78
2021/11/03 04:44:53;;;;;;;31.52;15.40;;;;;;;;;;5000400;28;20076;-79
2021/11/03 04:47:20;;;;;;;31.75;14.95;;;;;;;;;;5011646;28;20100;-78
2021/11/03 04:49:47;;;;;;;33.95;14.85;;;;;;;;;;5005367;28;20078;-79
2021/11/03 04:52:15;;;;;;;40.50;15.48;;;;;;;;;;5006045;28;20081;-79
2021/11/03 04:54:42;;;;;;;45.92;16.08;;;;;;;;;;5007523;28;20050;-79
2021/11/03 04:57:14;;;;;;;45.85;17.20;;;;;;;;;;5006956;28;20160;-78
2021/11/03 04:59:41;;;;;;;41.10;16.48;;;;;;;;;;5007084;28;20100;-78
2021/11/03 05:02:08;;;;;;;42.38;15.50;;;;;;;;;;5021708;28;20073;-78
2021/11/03 05:04:36;;;;;;;42.88;16.48;;;;;;;;;;5012383;28;20046;-78
2021/11/03 05:07:04;;;;;;;40.88;16.25;;;;;;;;;;5007171;28;20609;-78
2021/11/03 05:09:31;;;;;;;41.92;17.13;;;;;;;;;;5005354;28;20148;-78
2021/11/03 05:11:59;;;;;;;44.88;18.42;;;;;;;;;;5006946;28;20050;-78
2021/11/03 05:14:27;;;;;;;39.78;18.08;;;;;;;;;;5006309;28;20144;-79
2021/11/03 05:16:54;;;;;;;45.40;17.58;;;;;;;;;;5016758;28;20150;-78
2021/11/03 05:19:26;;;;;;;40.30;17.27;;;;;;;;;;4999500;28;20513;-79
2021/11/03 05:24:37;;;;;;;39.53;14.60;;;;;;;;;;5040267;28;20134;-79
2021/11/03 05:27:04;;;;;;;42.03;15.30;;;;;;;;;;5046712;28;20141;-79
2021/11/03 05:29:32;;;;;;;42.55;16.77;;;;;;;;;;5046497;28;20160;-78
2021/11/03 05:31:59;;;;;;;46.47;17.25;;;;;;;;;;5046497;28;20055;-79
2021/11/03 05:34:27;;;;;;;36.33;16.95;;;;;;;;;;5044029;28;20390;-78
2021/11/03 05:36:54;;;;;;;43.97;17.65;;;;;;;;;;5043881;28;20055;-79
2021/11/03 05:39:21;;;;;;;43.78;17.08;;;;;;;;;;5045473;28;20091;-79
2021/11/03 05:41:51;;;;;;;38.85;16.45;;;;;;;;;;5046148;28;20533;-79
2021/11/03 05:44:20;;;;;;;38.78;15.85;;;;;;;;;;5049995;28;20127;-87
2021/11/03 05:46:48;;;;;;;33.97;16.20;;;;;;;;;;5052046;28;20485;-88
2021/11/03 05:49:20;;;;;;;39.90;15.85;;;;;;;;;;5051255;28;20045;-87
2021/11/03 05:51:50;;;;;;;42.45;15.68;;;;;;;;;;5050954;28;20045;-86
2021/11/03 05:54:27;;;;;;;37.80;15.63;;;;;;;;;;5050514;28;20068;-88
2021/11/03 05:57:04;;;;;;;45.28;16.17;;;;;;;;;;5051857;28;20044;-87
2021/11/03 05:59:32;;;;;;;35.60;15.90;;;;;;;;;;5051084;28;20044;-86
2021/11/03 06:02:00;;;;;;;58.45;18.77;;;;;;;;;;5058777;28;20072;-90
2021/11/03 06:04:27;;;;;;;49.47;18.75;;;;;;;;;;5051933;28;20048;-89
2021/11/03 06:06:54;;;;;;;45.78;16.92;;;;;;;;;;5051370;28;20041;-92
2021/11/03 06:09:21;;;;;;;37.90;15.80;;;;;;;;;;5055667;28;20100;-89
2021/11/03 06:11:50;;;;;;;50.05;16.48;;;;;;;;;;5069923;28;20135;-92
2021/11/03 06:14:17;;;;;;;53.55;17.27;;;;;;;;;;5050482;28;20145;-90
2021/11/03 06:16:46;;;;;;;45.67;16.80;;;;;;;;;;5052501;28;20072;-91
2021/11/03 06:19:21;;;;;;;43.47;17.17;;;;;;;;;;5050998;28;20140;-88
2021/11/03 06:21:54;;;;;;;52.63;17.90;;;;;;;;;;5049077;28;20068;-91
2021/11/03 06:24:24;;;;;;;51.58;18.85;;;;;;;;;;5040241;28;20099;-89
2021/11/03 06:26:54;;;;;;;38.95;19.33;;;;;;;;;;5050980;28;20072;-87
2021/11/03 06:29:29;;;;;;;52.22;18.23;;;;;;;;;;5052389;28;20048;-88
2021/11/03 06:31:56;;;;;;;;;;;;;;;;;;5059395;28;20124;-89
2021/11/03 06:34:24;;;;;;;45.03;18.50;;;;;;;;;;5069179;28;19928;-87
2021/11/03 06:36:51;;;;;;;46.67;18.58;;;;;;;;;;5041527;28;20280;-90
2021/11/03 06:39:19;;;;;;;43.38;17.00;;;;;;;;;;5045561;28;20068;-91
2021/11/03 06:41:49;;;;;;;43.55;16.63;;;;;;;;;;5052382;28;20071;-87
2021/11/03 06:44:17;;;;;;;45.22;17.35;;;;;;;;;;5034642;28;20132;-79
2021/11/03 06:46:44;;;;;;;48.05;17.17;;;;;;;;;;5043078;28;20165;-79
2021/11/03 06:49:12;;;;;;;46.97;17.63;;;;;;;;;;5046163;28;20063;-78
2021/11/03 06:51:39;;;;;;;43.67;19.20;;;;;;;;;;5045213;28;20052;-79
2021/11/03 06:54:06;;;;;;;45.50;18.90;;;;;;;;;;5045659;28;20103;-78
2021/11/03 06:56:34;;;;;;;45.15;19.27;;;;;;;;;;5045724;28;20471;-79
2021/11/03 06:59:01;;;;;;;54.63;20.63;;;;;;;;;;5026450;28;20077;-78
2021/11/03 07:01:28;;;;;;;48.33;20.50;;;;;;;;;;5035897;28;20057;-79
2021/11/03 07:03:56;;;;;;;48.92;19.25;;;;;;;;;;5055858;28;20529;-79
2021/11/03 07:09:48;;;;;;;44.90;17.65;;;;;;;;;;5069784;28;20044;-89
2021/11/03 07:12:19;;;;;;;47.83;19.92;;;;;;;;;;5090202;28;20094;-89
2021/11/03 07:14:46;;;;;;;44.63;18.98;;;;;;;;;;5078882;28;20138;-88
2021/11/03 07:17:13;;;;;;;49.38;19.27;;;;;;;;;;5071324;28;20057;-88
2021/11/03 07:19:41;;;;;;;42.85;19.42;;;;;;;;;;5056801;28;20056;-88
2021/11/03 07:22:08;;;;;;;46.00;18.70;;;;;;;;;;5044595;28;20083;-87
2021/11/03 07:24:36;;;;;;;49.97;17.88;;;;;;;;;;5070162;28;20048;-86
2021/11/03 07:27:05;;;;;;;49.42;18.80;;;;;;;;;;5071633;28;20095;-87
2021/11/03 07:29:32;;;;;;;44.40;18.92;;;;;;;;;;5073567;28;20103;-87
2021/11/03 07:31:59;;;;;;;44.65;18.70;;;;;;;;;;5046771;28;20071;-88
2021/11/03 07:34:26;;;;;;;57.55;18.83;;;;;;;;;;5066681;28;20054;-89
2021/11/03 07:36:54;;;;;;;45.63;19.42;;;;;;;;;;5075427;28;20084;-87
2021/11/03 07:39:21;;;;;;;46.40;18.58;;;;;;;;;;5073799;28;20072;-87
2021/11/03 07:41:48;;;;;;;41.67;17.77;;;;;;;;;;5058040;28;20045;-89
2021/11/03 07:44:17;;;;;;;46.40;17.48;;;;;;;;;;5055129;28;20144;-88
2021/11/03 07:46:44;;;;;;;52.88;17.45;;;;;;;;;;5071228;28;20136;-87
2021/11/03 07:49:12;;;;;;;46.20;19.05;;;;;;;;;;5074678;28;20456;-88
2021/11/03 07:51:39;;;;;;;43.65;18.05;;;;;;;;;;5074294;28;20567;-88
2021/11/03 07:54:06;;;;;;;41.47;16.75;;;;;;;;;;5074758;28;20048;-88
2021/11/03 07:56:35;;;;;;;48.33;17.50;;;;;;;;;;5073682;28;20135;-88
2021/11/03 07:59:03;;;;;;;50.40;18.58;;;;;;;;;;5073572;28;20072;-86
2021/11/03 08:01:30;;;;;;;49.55;19.60;;;;;;;;;;5080128;28;20048;-88
2021/11/03 08:03:59;;;;;;;63.28;19.40;;;;;;;;;;5086084;28;20100;-89
2021/11/03 08:06:28;;;;;;;46.88;18.45;;;;;;;;;;5080534;28;20090;-88
2021/11/03 08:09:05;;;;;;;45.63;19.15;;;;;;;;;;5074456;28;20099;-88
2021/11/03 08:11:34;;;;;;;46.80;19.42;;;;;;;;;;5073124;28;20490;-87
2021/11/03 08:14:03;;;;;;;52.40;19.67;;;;;;;;;;5074737;28;20092;-88
2021/11/03 08:16:40;;;;;;;47.45;19.08;;;;;;;;;;5071953;28;20139;-87
2021/11/03 08:19:08;;;;;;;57.05;20.08;;;;;;;;;;5050759;28;20041;-88
2021/11/03 08:21:35;;;;;;;63.47;21.30;;;;;;;;;;5077265;28;20489;-88
2021/11/03 08:24:02;;;;;;;50.97;19.73;;;;;;;;;;5093934;28;20079;-86
2021/11/03 08:26:29;;;;;;;51.38;19.13;;;;;;;;;;5061358;28;20056;-89
2021/11/03 08:28:56;;;;;;;46.78;19.42;;;;;;;;;;5052110;28;20059;-87
2021/11/03 08:31:24;;;;;;;51.10;20.25;;;;;;;;;;5079815;28;20171;-88
2021/11/03 08:33:51;;;;;;;48.08;17.90;;;;;;;;;;5084599;28;20114;-90
2021/11/03 08:36:21;;;;;;;49.10;20.42;;;;;;;;;;5068962;28;20071;-87
2021/11/03 08:38:52;;;;;;;49.00;20.70;;;;;;;;;;5090304;28;20052;-88
2021/11/03 08:41:20;;;;;;;50.17;19.85;;;;;;;;;;5068146;28;20093;-88
2021/11/03 08:43:47;;;;;;;43.17;19.80;;;;;;;;;;5074977;28;20481;-88
2021/11/03 08:46:15;;;;;;;51.95;19.98;;;;;;;;;;5065975;28;20105;-89
2021/11/03 08:48:54;;;;;;;51.33;21.02;;;;;;;;;;5053012;28;20049;-79
2021/11/03 08:51:22;;;;;;;47.13;19.88;;;;;;;;;;5056690;28;20084;-79
2021/11/03 08:53:52;;;;;;;46.63;19.58;;;;;;;;;;5083074;28;20056;-79
2021/11/03 08:56:20;;;;;;;46.20;20.48;;;;;;;;;;5072510;28;20751;-79
2021/11/03 08:58:47;;;;;;;51.28;21.55;;;;;;;;;;5049362;28;20083;-79
2021/11/03 09:01:14;;;;;;;52.13;20.52;;;;;;;;;;5054759;28;20132;-79
2021/11/03 09:03:42;;;;;;;50.28;20.92;;;;;;;;;;5079878;28;20155;-79
2021/11/03 09:06:09;;;;;;;42.97;19.35;;;;;;;;;;5061062;28;20036;-79
2021/11/03 09:08:38;;;;;;;45.55;20.13;;;;;;;;;;5086915;28;20128;-79
2021/11/03 09:11:07;;;;;;;49.65;20.92;;;;;;;;;;5071750;28;20048;-80
2021/11/03 09:13:36;;;;;;;46.22;19.42;;;;;;;;;;5067531;28;20072;-79
2021/11/03 09:16:03;;;;;;;50.92;19.90;;;;;;;;;;5066435;28;20079;-79
2021/11/03 09:18:31;;;;;;;49.15;21.48;;;;;;;;;;5050508;28;20748;-88
2021/11/03 09:20:59;;;;;;;43.13;19.20;;;;;;;;;;5071971;28;20053;-88
2021/11/03 09:23:27;;;;;;;48.38;20.58;;;;;;;;;;5073704;28;20051;-88
2021/11/03 09:25:55;;;;;;;46.63;21.33;;;;;;;;;;5062721;28;20634;-88
2021/11/03 09:28:41;;;;;;;49.67;21.13;;;;;;;;;;5035632;28;20057;-88
2021/11/03 09:31:08;;;;;;;50.95;19.48;;;;;;;;;;5036646;28;20131;-80
2021/11/03 09:33:37;;;;;;;42.97;19.75;;;;;;;;;;5067278;28;20056;-79
2021/11/03 09:36:07;;;;;;;45.05;20.95;;;;;;;;;;5055189;28;20849;-79
2021/11/03 09:38:37;;;;;;;43.92;19.23;;;;;;;;;;5064063;28;20168;-80
2021/11/03 09:41:10;;;;;;;45.58;20.25;;;;;;;;;;5056472;28;20057;-79
2021/11/03 09:43:43;;;;;;;47.10;20.42;;;;;;;;;;5030380;28;20156;-80
2021/11/03 09:46:27;;;;;;;47.08;19.65;;;;;;;;;;5042338;28;20123;-80
2021/11/03 09:48:58;;;;;;;43.77;19.20;;;;;;;;;;5050028;28;20595;-79
2021/11/03 09:51:26;;;;;;;44.50;20.92;;;;;;;;;;5050317;28;20127;-80
2021/11/03 09:53:55;;;;;;;41.25;20.33;;;;;;;;;;5087867;28;20865;-80
2021/11/03 09:56:34;;;;;;;43.38;20.23;;;;;;;;;;5071807;28;20053;-80
2021/11/03 09:59:08;;;;;;;40.90;18.58;;;;;;;;;;5049018;28;20569;-79
2021/11/03 10:01:47;;;;;;;35.92;18.30;;;;;;;;;;5057946;28;20106;-80
2021/11/03 10:04:34;;;;;;;33.55;17.60;;;;;;;;;;5054284;28;20051;-79
2021/11/03 10:07:11;;;;;;;30.63;16.42;;;;;;;;;;5066946;28;20086;-80
2021/11/03 10:09:39;;;;;;;32.70;17.10;;;;;;;;;;5049540;28;20095;-80
2021/11/03 10:12:17;;;;;;;35.45;17.42;;;;;;;;;;5066697;28;20076;-80
2021/11/03 10:14:45;;;;;;;35.08;16.77;;;;;;;;;;5045651;28;20048;-79
2021/11/03 10:17:17;;;;;;;33.88;16.67;;;;;;;;;;5029981;28;20080;-80
2021/11/03 10:19:44;;;;;;;30.90;15.65;;;;;;;;;;5037636;28;20151;-80
2021/11/03 10:22:23;;;;;;;32.92;17.05;;;;;;;;;;5049164;28;20160;-80
2021/11/03 10:25:00;;;;;;;30.58;15.25;;;;;;;;;;5048454;28;20044;-79
2021/11/03 10:27:28;;;;;;;30.27;16.17;;;;;;;;;;5062459;28;20048;-80
2021/11/03 10:29:57;;;;;;;28.02;14.63;;;;;;;;;;5042224;28;20143;-80
2021/11/03 10:32:30;;;;;;;36.35;16.48;;;;;;;;;;5065675;28;20075;-79
2021/11/03 10:35:16;;;;;;;26.48;15.07;;;;;;;;;;5065979;28;20521;-79
2021/11/03 10:37:45;;;;;;;25.90;14.40;;;;;;;;;;5049990;28;20152;-80
2021/11/03 10:40:23;;;;;;;25.08;15.13;;;;;;;;;;5066704;28;20052;-80
2021/11/03 10:42:56;;;;;;;29.45;13.88;;;;;;;;;;5054333;28;20045;-80
2021/11/03 10:45:31;;;;;;;22.70;13.25;;;;;;;;;;5045026;28;20083;-79
2021/11/03 10:48:17;;;;;;;24.75;13.27;;;;;;;;;;5066288;28;20173;-79
2021/11/03 10:50:57;;;;;;;21.48;12.63;;;;;;;;;;5062994;28;20084;-80
2021/11/03 10:53:32;;;;;;;25.05;13.38;;;;;;;;;;5047155;28;20056;-80
2021/11/03 10:56:06;;;;;;;21.05;12.35;;;;;;;;;;5057114;28;20153;-80
2021/11/03 10:58:37;;;;;;;26.42;13.52;;;;;;;;;;5055015;28;20044;-80
2021/11/03 11:01:10;;;;;;;25.38;12.85;;;;;;;;;;5059909;28;20106;-79
2021/11/03 11:03:46;;;;;;;20.30;12.15;;;;;;;;;;5076649;28;20052;-79
2021/11/03 11:06:16;;;;;;;20.45;11.90;;;;;;;;;;5061307;28;20508;-80
2021/11/03 11:08:50;;;;;;;25.85;12.93;;;;;;;;;;5038901;28;20056;-80
2021/11/03 11:11:19;;;;;;;17.20;11.57;;;;;;;;;;5062096;28;20064;-80
2021/11/03 11:13:57;;;;;;;20.95;12.02;;;;;;;;;;5065641;28;20056;-80
2021/11/03 11:16:27;;;;;;;23.67;12.00;;;;;;;;;;5059988;28;20144;-80
2021/11/03 11:19:10;;;;;;;18.33;11.10;;;;;;;;;;5063363;28;20056;-80
2021/11/03 11:21:41;;;;;;;18.90;11.60;;;;;;;;;;5065250;28;20052;-79
2021/11/03 11:24:14;;;;;;;29.83;11.70;;;;;;;;;;5063704;28;20167;-79
2021/11/03 11:26:48;;;;;;;22.02;11.95;;;;;;;;;;5054184;28;20142;-80
2021/11/03 11:29:35;;;;;;;23.55;11.75;;;;;;;;;;5064489;28;20048;-79
2021/11/03 11:32:26;;;;;;;20.52;12.38;;;;;;;;;;5053763;28;20053;-79
2021/11/03 11:35:13;;;;;;;19.88;11.48;;;;;;;;;;5009394;28;20077;-78
2021/11/03 11:37:48;;;;;;;20.75;12.32;;;;;;;;;;5047060;28;20083;-79
2021/11/03 11:40:29;;;;;;;22.25;12.25;;;;;;;;;;5062317;28;20639;-79
2021/11/03 11:43:01;;;;;;;24.20;12.18;;;;;;;;;;5065771;28;20088;-79
2021/11/03 11:45:30;;;;;;;25.58;13.13;;;;;;;;;;5050111;28;20072;-79
2021/11/03 11:48:02;;;;;;;22.20;11.82;;;;;;;;;;5033263;28;20075;-79
2021/11/03 11:50:36;;;;;;;25.05;13.07;;;;;;;;;;5029626;28;20051;-79
2021/11/03 11:53:03;;;;;;;20.40;11.60;;;;;;;;;;5044818;28;20088;-79
2021/11/03 11:55:35;;;;;;;25.10;11.85;;;;;;;;;;5051194;28;20763;-80
2021/11/03 11:58:02;;;;;;;19.20;10.45;;;;;;;;;;5068869;28;20044;-79
2021/11/03 12:00:29;;;;;;;19.83;10.90;;;;;;;;;;5056546;28;20193;-79
2021/11/03 12:03:17;;;;;;;22.90;12.02;;;;;;;;;;5065984;28;20053;-79
2021/11/03 12:05:47;;;;;;;22.23;10.85;;;;;;;;;;5053204;28;20063;-80
2021/11/03 12:08:40;;;;;;;18.25;10.52;;;;;;;;;;5050834;28;20112;-80
2021/11/03 12:11:14;;;;;;;16.90;10.80;;;;;;;;;;5042957;28;20437;-79
2021/11/03 12:13:44;;;;;;;26.55;10.32;;;;;;;;;;5073009;28;20048;-79
2021/11/03 12:16:11;;;;;;;18.98;10.35;;;;;;;;;;5048369;28;20110;-79
2021/11/03 12:18:39;;;;;;;16.80;9.55;;;;;;;;;;5032352;28;20057;-79
2021/11/03 12:21:24;;;;;;;20.70;10.07;;;;;;;;;;5050553;28;20599;-79
2021/11/03 12:24:06;;;;;;;15.45;8.85;;;;;;;;;;5067697;28;20044;-79
2021/11/03 12:26:40;;;;;;;19.88;9.13;;;;;;;;;;5053046;28;20504;-78
2021/11/03 12:29:16;;;;;;;13.23;8.07;;;;;;;;;;5053343;28;20053;-80
2021/11/03 12:31:43;;;;;;;15.57;7.72;;;;;;;;;;5059637;28;20128;-80
2021/11/03 12:34:10;;;;;;;14.75;7.43;;;;;;;;;;5076680;28;20040;-80
2021/11/03 12:36:47;;;;;;;13.63;7.18;;;;;;;;;;5056493;28;20044;-81
2021/11/03 12:39:32;;;;;;;14.05;7.22;;;;;;;;;;5066964;28;20171;-77
2021/11/03 12:42:18;;;;;;;12.27;7.65;;;;;;;;;;5035638;28;20086;-77
2021/11/03 12:44:47;;;;;;;14.30;7.50;;;;;;;;;;5049769;28;20059;-77
2021/11/03 12:47:20;;;;;;;12.93;7.10;;;;;;;;;;5047775;28;20601;-77
2021/11/03 12:50:07;;;;;;;15.23;6.85;;;;;;;;;;5047065;28;20140;-78
2021/11/03 12:52:38;;;;;;;13.73;7.78;;;;;;;;;;5056244;28;20577;-77
2021/11/03 12:55:05;;;;;;;16.65;8.43;;;;;;;;;;5063980;28;20144;-77
2021/11/03 12:57:35;;;;;;;14.73;9.23;;;;;;;;;;5029944;28;20584;-77
2021/11/03 13:00:07;;;;;;;15.27;7.85;;;;;;;;;;5056891;28;20145;-76
2021/11/03 13:02:37;;;;;;;15.45;8.20;;;;;;;;;;5049744;28;20083;-77
2021/11/03 13:05:22;;;;;;;13.05;7.05;;;;;;;;;;5061011;28;20048;-77
2021/11/03 13:08:19;;;;;;;12.38;6.85;;;;;;;;;;5066322;28;20052;-77
2021/11/03 13:10:46;;;;;;;14.95;8.00;;;;;;;;;;5067655;28;20625;-76
2021/11/03 13:13:14;;;;;;;19.33;7.63;;;;;;;;;;5066861;28;20135;-77
2021/11/03 13:15:49;;;;;;;14.35;7.35;;;;;;;;;;5060168;28;20098;-76
2021/11/03 13:18:24;;;;;;;19.70;8.13;;;;;;;;;;5048244;28;20151;-79
2021/11/03 13:20:56;;;;;;;27.27;6.63;;;;;;;;;;5038700;28;20068;-79
2021/11/03 13:23:24;;;;;;;17.58;6.15;;;;;;;;;;5047960;28;20159;-79
2021/11/03 13:25:57;;;;;;;13.82;6.03;;;;;;;;;;5033350;28;20528;-79
2021/11/03 13:28:30;;;;;;;8.93;4.60;;;;;;;;;;5029422;28;20116;-79
2021/11/03 13:30:58;;;;;;;11.25;6.55;;;;;;;;;;5050110;28;20127;-79
2021/11/03 13:33:37;;;;;;;13.07;7.07;;;;;;;;;;5042178;28;20528;-79
2021/11/03 13:36:24;;;;;;;22.25;6.78;;;;;;;;;;5062236;28;20449;-79
2021/11/03 13:38:54;;;;;;;14.75;7.75;;;;;;;;;;5049607;28;20135;-79
2021/11/03 13:41:26;;;;;;;15.90;7.90;;;;;;;;;;5056817;28;20080;-78
2021/11/03 13:44:12;;;;;;;14.85;7.95;;;;;;;;;;5067777;28;20095;-79
2021/11/03 13:46:39;;;;;;;;;;;;;;;;;;5056005;28;20080;-79
2021/11/03 13:49:19;;;;;;;14.57;8.57;;;;;;;;;;5066588;28;20670;-78
2021/11/03 13:51:48;;;;;;;16.55;8.07;;;;;;;;;;5046214;28;20132;-79
2021/11/03 13:54:20;;;;;;;11.93;7.47;;;;;;;;;;5047122;28;20084;-79
2021/11/03 13:56:49;;;;;;;13.00;6.93;;;;;;;;;;5062288;28;20080;-79
2021/11/03 13:59:23;;;;;;;14.75;7.55;;;;;;;;;;5049264;28;20576;-79
2021/11/03 14:01:52;;;;;;;12.63;7.07;;;;;;;;;;5055603;28;20052;-79
2021/11/03 14:04:22;;;;;;;19.25;7.90;;;;;;;;;;5077994;28;20133;-79
2021/11/03 14:07:01;;;;;;;18.20;7.88;;;;;;;;;;5067847;28;20088;-79
2021/11/03 14:09:28;;;;;;;17.30;7.28;;;;;;;;;;5032894;28;20123;-79
2021/11/03 14:11:57;;;;;;;14.13;8.18;;;;;;;;;;5048355;28;20135;-79
2021/11/03 14:14:25;;;;;;;20.70;9.48;;;;;;;;;;5066880;28;20048;-79
2021/11/03 14:17:01;;;;;;;15.23;8.18;;;;;;;;;;5047338;28;20215;-79
2021/11/03 14:19:32;;;;;;;14.23;8.00;;;;;;;;;;5049476;28;20128;-79
2021/11/03 14:22:01;;;;;;;21.35;8.25;;;;;;;;;;5042351;28;20472;-79
2021/11/03 14:24:29;;;;;;;15.80;7.90;;;;;;;;;;5085898;28;20052;-79
2021/11/03 14:26:57;;;;;;;14.27;8.05;;;;;;;;;;5067476;28;20520;-79
2021/11/03 14:29:24;;;;;;;12.70;7.55;;;;;;;;;;5048944;28;20136;-79
2021/11/03 14:31:52;;;;;;;12.63;7.95;;;;;;;;;;5054867;28;20051;-79
2021/11/03 14:34:26;;;;;;;15.90;7.82;;;;;;;;;;5047984;28;20052;-79
2021/11/03 14:36:53;;;;;;;17.42;7.43;;;;;;;;;;5052115;28;20083;-79
2021/11/03 14:39:22;;;;;;;19.88;8.05;;;;;;;;;;5061523;28;20837;-79
2021/11/03 14:41:49;;;;;;;21.08;7.75;;;;;;;;;;5064351;28;20091;-79
2021/11/03 14:44:17;;;;;;;17.17;7.90;;;;;;;;;;5047758;28;20815;-78
2021/11/03 14:46:52;;;;;;;19.83;7.25;;;;;;;;;;5064549;28;20565;-78